Center for Professional Development & Training
CPDT sessions are restricted to UNF faculty, staff and OPS employees, including student assistants.

Below are current open training sessions. Restricted or full sessions are not listed. Contact training@unf.edu for additional information.

Directions:
Register for classes by checking the appropriate box next to each class and selecting the Enrollment Form button.
For a description of the classes, check the appropriate box next to each class and select the Information button.
Current semester: Spring 2018
Start Date Start Time Stop Time Class Location Trainer Seats Taken /
Capacity
02-27-2018 9:00AM 11:00AM CMS Web Design Basics (ITS-126) 53/1400 Thompson, Katherine 10 / 15
02-27-2018 1:00PM 2:00PM Best Business Practices (IA-110) 12/2405 Hartman, Robb 24 / 30
03-01-2018 1:30PM 3:30PM Finance Self Service (BGT-100) 53/1400 Byrd, Erin 3 / 24
03-01-2018 2:00PM 4:00PM iContracts (CON-108) 12/4301 Lee, Angela 3 / 12
03-02-2018 9:30AM 11:00AM Debunked: FMLA, Workers Comp and the ADA (HR-155) 53/1430 Neidhardt, Jennifer 4 / 30
03-02-2018 2:00PM 3:30PM Accepting Credit Card Payments: Payment Card Industry Data Security Standards Compliance (PCI DSS) (PUR-113) 12/4301 Lee, Angela 2 / 12
03-07-2018 9:00AM 11:00AM CMS Training: Beginner (ITS-118) 53/1400 Thompson, Katherine 2 / 15
03-07-2018 2:30PM 4:30PM Originating an ePAF (HR-126) 53/1400 Levine, Stefanie 6 / 24
03-08-2018 10:00AM 12:00PM Qualtrics Reporting Tools (CIRT-103) 12/4301 Harden, Jessica 11 / 12
03-09-2018 1:30PM 4:30PM Direct Pay & Elec. Invoice Approval (CON-102) 12/4301 Lee, Angela 1 / 12
03-13-2018 1:00PM 4:00PM Creating and Managing Online Surveys Level 1 (CIRT-101) 12/4301 Harden, Jessica 6 / 12
03-14-2018 1:00PM 2:00PM Best Business Practices (IA-110) 12/2405 Hartman, Robb 21 / 30
03-15-2018 9:00AM 11:00AM CMS: Website Accessibility and Workshop (ITS-128) 53/1400 Thompson, Katherine 6 / 15
03-15-2018 10:00AM 11:30AM Information for UNF Search and Screen Committee Members (EOD-121) 12/2405 Gonzalez, Cheryl 3 / 20
03-16-2018 9:00AM 4:00PM Excel 2016 Level II - Intermediate (PDT-326) 53/1400 Doug Leas 21 / 24
03-19-2018 1:00PM 3:30PM CCP in Race & Ethnicity Identity (SA-143) 58E/2100 Winfrey, Brandi 14 / 15
03-21-2018 9:30AM 12:30PM OASys Applicant Tracking (HR-201) 12/4301 Jackson, Ricarla 2 / 12
03-27-2018 1:00PM 2:00PM Best Business Practices (IA-110) 12/2405 Hartman, Robb 23 / 30
03-28-2018 9:00AM 11:00AM CMS Training: Beginner (ITS-118) 53/1400 Thompson, Katherine 0 / 15
04-02-2018 9:00AM 11:00AM Finance Self Service (BGT-100) 12/4301 Byrd, Erin 3 / 12
04-03-2018 9:00AM 11:00AM CMS Web Design Basics (ITS-126) 53/1400 Thompson, Katherine 1 / 15
04-03-2018 2:00PM 4:00PM iContracts (CON-108) 53/1400 Lee, Angela 3 / 24
04-04-2018 10:00AM 11:30AM HR Policies and Procedures (HR-150) 1/1306 Catron, Gregory 4 / 15
04-04-2018 12:00PM 1:00PM Healthy Osprey - Plant-Based Eating (SA-226) 58E/2100 Schooley, Kelly 15 / 15
04-04-2018 2:00PM 3:30PM Accepting Credit Card Payments: Payment Card Industry Data Security Standards Compliance (PCI DSS) (PUR-113) 12/4301 Lee, Angela 1 / 12
04-11-2018 9:00AM 11:00AM CMS Training: Beginner (ITS-118) 53/1400 Thompson, Katherine 0 / 15
04-11-2018 1:00PM 2:30PM Information for UNF Search and Screen Committee Members (EOD-121) 12/2405 Gonzalez, Cheryl 0 / 20
04-12-2018 10:00AM 11:00AM Office Ergonomics - It Really is About You! (SA-154) 53/1400 Smith, Brandon J (EHS) 12 / 24
04-12-2018 2:00PM 3:30PM Quillix Capture 5 (ITS-131) 12/4301 Lee, Angela 0 / 12
04-12-2018 3:30PM 4:30PM OnBase Web Client Training (ITS-113) 12/4301 Lee, Angela 3 / 12
04-13-2018 9:00AM 12:00PM Introduction to Public Speaking-Part I (HR-130) 1/1306 Harrison, Kelly 7 / 12
04-13-2018 1:30PM 4:30PM Direct Pay & Elec. Invoice Approval (CON-102) 12/4301 Lee, Angela 0 / 12
04-17-2018 2:30PM 4:00PM Awarding Scholarships for Student Travel (AA-100) 1/1306 Lee, Angela 0 / 15
04-18-2018 9:30AM 12:30PM OASys Position Management Training (HR-200) 53/1400 Michael Fritts 5 / 24
04-18-2018 1:00PM 4:30PM Safe Space: Cultural Competency in LGBTQ Identities (SA-133) 58E/2100 SACR Kaitlin Legg 11 / 15
04-18-2018 2:30PM 4:30PM OASys Applicant Tracking (HR-201) 53/1400 Jackson, Ricarla 2 / 24
04-19-2018 9:00AM 11:00AM Procurement 101 (PUR-120) 53/1400 Asmuth, Shawn 1 / 24
04-19-2018 9:00AM 10:00AM Digital Distraction: When Technology Takes Over! (PDT-301) 1/1306 Health Advocate (CCW) 9 / 15
04-19-2018 1:00PM 3:00PM CMS: Website Accessibility and Workshop (ITS-128) 53/1400 Thompson, Katherine 1 / 15
04-20-2018 9:00AM 12:00PM Introduction to Public Speaking- Part II (HR-131) 1/1306 Harrison, Kelly 5 / 12
04-20-2018 1:00PM 2:00PM Best Business Practices (IA-110) 12/2405 Hartman, Robb 21 / 30
04-25-2018 9:00AM 11:00AM CMS Training: Beginner (ITS-118) 53/1400 Thompson, Katherine 0 / 15
04-25-2018 10:00AM 12:00PM Originating an ePAF (HR-126) 12/4301 Levine, Stefanie 2 / 12
04-27-2018 9:00AM 10:30AM University Property and Records Management (AF-110) 12/4301 Mousa, James 1 / 12
05-01-2018 9:00AM 11:00AM Finance Self Service (BGT-100) 53/1400 Byrd, Erin 0 / 24